sensor_id;sensor_type;location;lat;lon;timestamp;P1;durP1;ratioP1;P2;durP2;ratioP2
1799;SDS011;919;48.274;12.292;2023-03-01T00:00:12;21.00;;;12.60;;
1799;SDS011;919;48.274;12.292;2023-03-01T00:02:39;15.47;;;11.50;;
1799;SDS011;919;48.274;12.292;2023-03-01T00:05:06;16.07;;;11.70;;
1799;SDS011;919;48.274;12.292;2023-03-01T00:07:33;20.83;;;12.10;;
1799;SDS011;919;48.274;12.292;2023-03-01T00:10:02;19.80;;;11.87;;
1799;SDS011;919;48.274;12.292;2023-03-01T00:12:29;18.63;;;10.93;;
1799;SDS011;919;48.274;12.292;2023-03-01T00:14:57;17.80;;;10.70;;
1799;SDS011;919;48.274;12.292;2023-03-01T00:17:23;15.30;;;10.57;;
1799;SDS011;919;48.274;12.292;2023-03-01T00:19:50;15.90;;;10.23;;
1799;SDS011;919;48.274;12.292;2023-03-01T00:22:17;18.00;;;11.37;;
1799;SDS011;919;48.274;12.292;2023-03-01T00:24:43;15.20;;;10.50;;
1799;SDS011;919;48.274;12.292;2023-03-01T00:27:11;15.43;;;10.93;;
1799;SDS011;919;48.274;12.292;2023-03-01T00:29:38;18.47;;;12.17;;
1799;SDS011;919;48.274;12.292;2023-03-01T00:32:05;15.50;;;11.00;;
1799;SDS011;919;48.274;12.292;2023-03-01T00:34:31;15.70;;;10.23;;
1799;SDS011;919;48.274;12.292;2023-03-01T00:36:58;20.93;;;11.63;;
1799;SDS011;919;48.274;12.292;2023-03-01T00:39:30;17.57;;;10.70;;
1799;SDS011;919;48.274;12.292;2023-03-01T00:41:57;18.90;;;10.63;;
1799;SDS011;919;48.274;12.292;2023-03-01T00:44:25;19.33;;;11.10;;
1799;SDS011;919;48.274;12.292;2023-03-01T00:46:53;16.67;;;9.97;;
1799;SDS011;919;48.274;12.292;2023-03-01T00:49:19;16.47;;;10.70;;
1799;SDS011;919;48.274;12.292;2023-03-01T00:51:46;17.70;;;10.80;;
1799;SDS011;919;48.274;12.292;2023-03-01T00:54:13;18.13;;;10.80;;
1799;SDS011;919;48.274;12.292;2023-03-01T00:56:39;14.47;;;10.33;;
1799;SDS011;919;48.274;12.292;2023-03-01T00:59:06;13.00;;;9.07;;
1799;SDS011;919;48.274;12.292;2023-03-01T01:01:34;18.47;;;11.33;;
1799;SDS011;919;48.274;12.292;2023-03-01T01:04:01;18.30;;;10.73;;
1799;SDS011;919;48.274;12.292;2023-03-01T01:06:30;14.73;;;10.20;;
1799;SDS011;919;48.274;12.292;2023-03-01T01:08:58;16.47;;;10.50;;
1799;SDS011;919;48.274;12.292;2023-03-01T01:11:26;17.30;;;10.83;;
1799;SDS011;919;48.274;12.292;2023-03-01T01:13:54;20.50;;;11.43;;
1799;SDS011;919;48.274;12.292;2023-03-01T01:16:22;14.43;;;11.60;;
1799;SDS011;919;48.274;12.292;2023-03-01T01:18:52;22.63;;;11.50;;
1799;SDS011;919;48.274;12.292;2023-03-01T01:21:20;16.30;;;11.23;;
1799;SDS011;919;48.274;12.292;2023-03-01T01:23:48;16.40;;;11.40;;
1799;SDS011;919;48.274;12.292;2023-03-01T01:26:17;17.40;;;12.40;;
1799;SDS011;919;48.274;12.292;2023-03-01T01:28:45;19.77;;;10.83;;
1799;SDS011;919;48.274;12.292;2023-03-01T01:31:12;16.10;;;11.80;;
1799;SDS011;919;48.274;12.292;2023-03-01T01:33:39;17.23;;;10.77;;
1799;SDS011;919;48.274;12.292;2023-03-01T01:36:07;16.70;;;10.73;;
1799;SDS011;919;48.274;12.292;2023-03-01T01:38:35;21.27;;;11.47;;
1799;SDS011;919;48.274;12.292;2023-03-01T01:41:03;18.23;;;11.37;;
1799;SDS011;919;48.274;12.292;2023-03-01T01:43:31;15.83;;;11.43;;
1799;SDS011;919;48.274;12.292;2023-03-01T01:46:01;19.00;;;12.00;;
1799;SDS011;919;48.274;12.292;2023-03-01T01:48:32;18.83;;;10.97;;
1799;SDS011;919;48.274;12.292;2023-03-01T01:51:09;17.43;;;10.37;;
1799;SDS011;919;48.274;12.292;2023-03-01T01:53:38;20.20;;;11.50;;
1799;SDS011;919;48.274;12.292;2023-03-01T01:56:06;16.20;;;12.30;;
1799;SDS011;919;48.274;12.292;2023-03-01T01:58:36;18.73;;;11.40;;
1799;SDS011;919;48.274;12.292;2023-03-01T02:01:04;22.87;;;12.57;;
1799;SDS011;919;48.274;12.292;2023-03-01T02:03:32;13.80;;;10.23;;
1799;SDS011;919;48.274;12.292;2023-03-01T02:06:03;21.13;;;12.30;;
1799;SDS011;919;48.274;12.292;2023-03-01T02:08:35;18.30;;;11.03;;
1799;SDS011;919;48.274;12.292;2023-03-01T02:11:04;15.70;;;10.47;;
1799;SDS011;919;48.274;12.292;2023-03-01T02:13:31;17.30;;;11.37;;
1799;SDS011;919;48.274;12.292;2023-03-01T02:16:02;21.10;;;11.67;;
1799;SDS011;919;48.274;12.292;2023-03-01T02:18:29;17.27;;;10.37;;
1799;SDS011;919;48.274;12.292;2023-03-01T02:21:08;20.10;;;11.53;;
1799;SDS011;919;48.274;12.292;2023-03-01T02:23:44;15.80;;;9.80;;
1799;SDS011;919;48.274;12.292;2023-03-01T02:26:15;16.90;;;10.70;;
1799;SDS011;919;48.274;12.292;2023-03-01T02:28:46;20.60;;;12.17;;
1799;SDS011;919;48.274;12.292;2023-03-01T02:31:14;17.47;;;11.30;;
1799;SDS011;919;48.274;12.292;2023-03-01T02:34:01;15.67;;;10.30;;
1799;SDS011;919;48.274;12.292;2023-03-01T02:36:30;19.93;;;11.60;;
1799;SDS011;919;48.274;12.292;2023-03-01T02:39:07;22.50;;;13.07;;
1799;SDS011;919;48.274;12.292;2023-03-01T02:41:39;21.80;;;11.60;;
1799;SDS011;919;48.274;12.292;2023-03-01T02:44:10;18.13;;;11.50;;
1799;SDS011;919;48.274;12.292;2023-03-01T02:46:42;18.73;;;10.87;;
1799;SDS011;919;48.274;12.292;2023-03-01T02:49:17;18.97;;;11.83;;
1799;SDS011;919;48.274;12.292;2023-03-01T02:51:48;15.27;;;11.10;;
1799;SDS011;919;48.274;12.292;2023-03-01T02:54:24;21.10;;;11.43;;
1799;SDS011;919;48.274;12.292;2023-03-01T02:56:54;23.90;;;12.00;;
1799;SDS011;919;48.274;12.292;2023-03-01T02:59:24;21.73;;;10.90;;
1799;SDS011;919;48.274;12.292;2023-03-01T03:01:55;17.90;;;11.57;;
1799;SDS011;919;48.274;12.292;2023-03-01T03:04:21;15.83;;;11.20;;
1799;SDS011;919;48.274;12.292;2023-03-01T03:06:49;14.47;;;9.57;;
1799;SDS011;919;48.274;12.292;2023-03-01T03:09:16;20.43;;;12.07;;
1799;SDS011;919;48.274;12.292;2023-03-01T03:11:44;18.73;;;10.70;;
1799;SDS011;919;48.274;12.292;2023-03-01T03:14:11;19.80;;;11.60;;
1799;SDS011;919;48.274;12.292;2023-03-01T03:16:41;17.70;;;9.90;;
1799;SDS011;919;48.274;12.292;2023-03-01T03:19:09;18.60;;;10.93;;
1799;SDS011;919;48.274;12.292;2023-03-01T03:21:37;17.90;;;11.23;;
1799;SDS011;919;48.274;12.292;2023-03-01T03:24:05;19.50;;;11.67;;
1799;SDS011;919;48.274;12.292;2023-03-01T03:26:31;17.03;;;10.60;;
1799;SDS011;919;48.274;12.292;2023-03-01T03:28:58;21.20;;;10.40;;
1799;SDS011;919;48.274;12.292;2023-03-01T03:31:25;20.33;;;11.37;;
1799;SDS011;919;48.274;12.292;2023-03-01T03:33:54;16.40;;;10.37;;
1799;SDS011;919;48.274;12.292;2023-03-01T03:36:22;18.23;;;11.10;;
1799;SDS011;919;48.274;12.292;2023-03-01T03:38:50;16.70;;;11.23;;
1799;SDS011;919;48.274;12.292;2023-03-01T03:41:17;14.33;;;10.20;;
1799;SDS011;919;48.274;12.292;2023-03-01T03:43:44;14.63;;;9.20;;
1799;SDS011;919;48.274;12.292;2023-03-01T03:46:11;17.47;;;9.83;;
1799;SDS011;919;48.274;12.292;2023-03-01T03:48:39;14.33;;;9.83;;
1799;SDS011;919;48.274;12.292;2023-03-01T03:51:11;14.53;;;10.30;;
1799;SDS011;919;48.274;12.292;2023-03-01T03:53:38;15.30;;;9.80;;
1799;SDS011;919;48.274;12.292;2023-03-01T03:56:06;20.30;;;11.13;;
1799;SDS011;919;48.274;12.292;2023-03-01T03:58:33;21.17;;;10.30;;
1799;SDS011;919;48.274;12.292;2023-03-01T04:00:59;18.70;;;11.40;;
1799;SDS011;919;48.274;12.292;2023-03-01T04:03:27;26.20;;;11.50;;
1799;SDS011;919;48.274;12.292;2023-03-01T04:05:56;16.27;;;9.63;;
1799;SDS011;919;48.274;12.292;2023-03-01T04:08:25;16.87;;;10.97;;
1799;SDS011;919;48.274;12.292;2023-03-01T04:10:53;19.80;;;11.80;;
1799;SDS011;919;48.274;12.292;2023-03-01T04:13:24;18.93;;;11.87;;
1799;SDS011;919;48.274;12.292;2023-03-01T04:15:50;20.53;;;11.10;;
1799;SDS011;919;48.274;12.292;2023-03-01T04:18:21;17.03;;;9.67;;
1799;SDS011;919;48.274;12.292;2023-03-01T04:20:49;20.07;;;11.07;;
1799;SDS011;919;48.274;12.292;2023-03-01T04:23:20;15.37;;;10.07;;
1799;SDS011;919;48.274;12.292;2023-03-01T04:25:49;19.87;;;11.33;;
1799;SDS011;919;48.274;12.292;2023-03-01T04:28:19;20.20;;;10.67;;
1799;SDS011;919;48.274;12.292;2023-03-01T04:30:46;18.23;;;10.50;;
1799;SDS011;919;48.274;12.292;2023-03-01T04:33:12;22.90;;;10.47;;
1799;SDS011;919;48.274;12.292;2023-03-01T04:35:39;13.60;;;9.13;;
1799;SDS011;919;48.274;12.292;2023-03-01T04:38:06;17.20;;;10.60;;
1799;SDS011;919;48.274;12.292;2023-03-01T04:40:33;17.73;;;10.47;;
1799;SDS011;919;48.274;12.292;2023-03-01T04:43:01;25.40;;;11.30;;
1799;SDS011;919;48.274;12.292;2023-03-01T04:45:29;22.77;;;12.37;;
1799;SDS011;919;48.274;12.292;2023-03-01T04:47:59;16.27;;;10.47;;
1799;SDS011;919;48.274;12.292;2023-03-01T04:50:26;19.60;;;11.23;;
1799;SDS011;919;48.274;12.292;2023-03-01T04:52:53;22.50;;;12.10;;
1799;SDS011;919;48.274;12.292;2023-03-01T04:55:23;18.23;;;10.70;;
1799;SDS011;919;48.274;12.292;2023-03-01T04:57:50;17.43;;;10.30;;
1799;SDS011;919;48.274;12.292;2023-03-01T05:00:19;17.10;;;11.33;;
1799;SDS011;919;48.274;12.292;2023-03-01T05:02:47;16.53;;;11.00;;
1799;SDS011;919;48.274;12.292;2023-03-01T05:05:18;18.80;;;10.30;;
1799;SDS011;919;48.274;12.292;2023-03-01T05:07:46;15.07;;;9.13;;
1799;SDS011;919;48.274;12.292;2023-03-01T05:10:12;15.33;;;10.40;;
1799;SDS011;919;48.274;12.292;2023-03-01T05:12:39;15.90;;;10.40;;
1799;SDS011;919;48.274;12.292;2023-03-01T05:15:06;15.13;;;9.40;;
1799;SDS011;919;48.274;12.292;2023-03-01T05:17:35;22.03;;;11.70;;
1799;SDS011;919;48.274;12.292;2023-03-01T05:20:02;15.50;;;10.17;;
1799;SDS011;919;48.274;12.292;2023-03-01T05:22:32;15.40;;;9.63;;
1799;SDS011;919;48.274;12.292;2023-03-01T05:24:58;19.53;;;10.40;;
1799;SDS011;919;48.274;12.292;2023-03-01T05:27:25;19.30;;;11.43;;
1799;SDS011;919;48.274;12.292;2023-03-01T05:29:52;20.13;;;11.07;;
1799;SDS011;919;48.274;12.292;2023-03-01T05:32:18;13.33;;;9.37;;
1799;SDS011;919;48.274;12.292;2023-03-01T05:34:47;19.00;;;11.17;;
1799;SDS011;919;48.274;12.292;2023-03-01T05:37:13;17.10;;;11.13;;
1799;SDS011;919;48.274;12.292;2023-03-01T05:39:40;16.40;;;10.47;;
1799;SDS011;919;48.274;12.292;2023-03-01T05:42:09;19.27;;;10.97;;
1799;SDS011;919;48.274;12.292;2023-03-01T05:44:37;19.90;;;11.50;;
1799;SDS011;919;48.274;12.292;2023-03-01T05:47:03;18.57;;;10.37;;
1799;SDS011;919;48.274;12.292;2023-03-01T05:49:31;19.53;;;11.17;;
1799;SDS011;919;48.274;12.292;2023-03-01T05:51:59;15.70;;;9.70;;
1799;SDS011;919;48.274;12.292;2023-03-01T05:54:26;14.47;;;10.37;;
1799;SDS011;919;48.274;12.292;2023-03-01T05:56:52;18.47;;;11.23;;
1799;SDS011;919;48.274;12.292;2023-03-01T05:59:19;21.70;;;11.87;;
1799;SDS011;919;48.274;12.292;2023-03-01T06:01:46;23.10;;;11.73;;
1799;SDS011;919;48.274;12.292;2023-03-01T06:04:13;21.97;;;11.53;;
1799;SDS011;919;48.274;12.292;2023-03-01T06:06:39;19.90;;;11.40;;
1799;SDS011;919;48.274;12.292;2023-03-01T06:09:07;17.13;;;10.70;;
1799;SDS011;919;48.274;12.292;2023-03-01T06:11:35;17.03;;;10.73;;
1799;SDS011;919;48.274;12.292;2023-03-01T06:14:02;18.07;;;11.20;;
1799;SDS011;919;48.274;12.292;2023-03-01T06:16:29;21.17;;;11.40;;
1799;SDS011;919;48.274;12.292;2023-03-01T06:18:56;21.37;;;10.53;;
1799;SDS011;919;48.274;12.292;2023-03-01T06:21:22;23.13;;;11.70;;
1799;SDS011;919;48.274;12.292;2023-03-01T06:23:49;21.87;;;10.80;;
1799;SDS011;919;48.274;12.292;2023-03-01T06:26:18;18.93;;;10.50;;
1799;SDS011;919;48.274;12.292;2023-03-01T06:28:44;20.43;;;12.47;;
1799;SDS011;919;48.274;12.292;2023-03-01T06:31:11;17.70;;;10.97;;
1799;SDS011;919;48.274;12.292;2023-03-01T06:33:38;16.27;;;10.60;;
1799;SDS011;919;48.274;12.292;2023-03-01T06:36:05;20.87;;;12.47;;
1799;SDS011;919;48.274;12.292;2023-03-01T06:38:33;22.13;;;12.00;;
1799;SDS011;919;48.274;12.292;2023-03-01T06:40:59;20.80;;;12.40;;
1799;SDS011;919;48.274;12.292;2023-03-01T06:43:28;19.93;;;12.47;;
1799;SDS011;919;48.274;12.292;2023-03-01T06:45:55;19.83;;;12.30;;
1799;SDS011;919;48.274;12.292;2023-03-01T06:48:22;18.27;;;11.13;;
1799;SDS011;919;48.274;12.292;2023-03-01T06:50:48;19.20;;;10.57;;
1799;SDS011;919;48.274;12.292;2023-03-01T06:53:15;24.37;;;12.33;;
1799;SDS011;919;48.274;12.292;2023-03-01T06:55:42;22.80;;;12.07;;
1799;SDS011;919;48.274;12.292;2023-03-01T06:58:09;19.07;;;11.63;;
1799;SDS011;919;48.274;12.292;2023-03-01T07:00:37;16.60;;;11.23;;
1799;SDS011;919;48.274;12.292;2023-03-01T07:03:05;15.77;;;10.27;;
1799;SDS011;919;48.274;12.292;2023-03-01T07:05:33;19.13;;;11.80;;
1799;SDS011;919;48.274;12.292;2023-03-01T07:07:59;18.97;;;11.73;;
1799;SDS011;919;48.274;12.292;2023-03-01T07:10:26;17.67;;;12.03;;
1799;SDS011;919;48.274;12.292;2023-03-01T07:12:54;18.57;;;10.90;;
1799;SDS011;919;48.274;12.292;2023-03-01T07:15:21;17.60;;;10.63;;
1799;SDS011;919;48.274;12.292;2023-03-01T07:17:49;22.90;;;12.10;;
1799;SDS011;919;48.274;12.292;2023-03-01T07:20:16;26.43;;;12.57;;
1799;SDS011;919;48.274;12.292;2023-03-01T07:22:43;16.23;;;10.57;;
1799;SDS011;919;48.274;12.292;2023-03-01T07:25:10;20.53;;;12.40;;
1799;SDS011;919;48.274;12.292;2023-03-01T07:27:37;16.87;;;11.80;;
1799;SDS011;919;48.274;12.292;2023-03-01T07:30:04;16.37;;;10.80;;
1799;SDS011;919;48.274;12.292;2023-03-01T07:32:32;20.47;;;11.63;;
1799;SDS011;919;48.274;12.292;2023-03-01T07:35:00;22.70;;;12.20;;
1799;SDS011;919;48.274;12.292;2023-03-01T07:37:26;19.80;;;11.93;;
1799;SDS011;919;48.274;12.292;2023-03-01T07:39:53;20.63;;;12.10;;
1799;SDS011;919;48.274;12.292;2023-03-01T07:42:20;21.20;;;12.07;;
1799;SDS011;919;48.274;12.292;2023-03-01T07:44:46;17.63;;;11.17;;
1799;SDS011;919;48.274;12.292;2023-03-01T07:47:13;21.00;;;10.97;;
1799;SDS011;919;48.274;12.292;2023-03-01T07:49:40;18.97;;;11.97;;
1799;SDS011;919;48.274;12.292;2023-03-01T07:52:08;30.13;;;13.67;;
1799;SDS011;919;48.274;12.292;2023-03-01T07:54:36;19.63;;;11.00;;
1799;SDS011;919;48.274;12.292;2023-03-01T07:57:03;24.30;;;12.33;;
1799;SDS011;919;48.274;12.292;2023-03-01T07:59:30;22.00;;;12.90;;
1799;SDS011;919;48.274;12.292;2023-03-01T08:01:57;22.97;;;13.93;;
1799;SDS011;919;48.274;12.292;2023-03-01T08:04:24;19.03;;;11.03;;
1799;SDS011;919;48.274;12.292;2023-03-01T08:06:51;20.60;;;12.80;;
1799;SDS011;919;48.274;12.292;2023-03-01T08:09:19;20.70;;;12.07;;
1799;SDS011;919;48.274;12.292;2023-03-01T08:11:47;25.67;;;13.70;;
1799;SDS011;919;48.274;12.292;2023-03-01T08:14:13;27.23;;;13.63;;
1799;SDS011;919;48.274;12.292;2023-03-01T08:16:40;17.57;;;11.77;;
1799;SDS011;919;48.274;12.292;2023-03-01T08:19:07;18.90;;;11.77;;
1799;SDS011;919;48.274;12.292;2023-03-01T08:21:35;19.93;;;12.50;;
1799;SDS011;919;48.274;12.292;2023-03-01T08:24:03;20.87;;;12.87;;
1799;SDS011;919;48.274;12.292;2023-03-01T08:26:33;21.87;;;13.33;;
1799;SDS011;919;48.274;12.292;2023-03-01T08:29:00;24.60;;;13.10;;
1799;SDS011;919;48.274;12.292;2023-03-01T08:31:27;21.37;;;13.30;;
1799;SDS011;919;48.274;12.292;2023-03-01T08:33:56;23.97;;;14.97;;
1799;SDS011;919;48.274;12.292;2023-03-01T08:36:25;23.70;;;14.47;;
1799;SDS011;919;48.274;12.292;2023-03-01T08:38:52;21.93;;;12.87;;
1799;SDS011;919;48.274;12.292;2023-03-01T08:41:20;27.30;;;15.80;;
1799;SDS011;919;48.274;12.292;2023-03-01T08:43:48;20.70;;;13.03;;
1799;SDS011;919;48.274;12.292;2023-03-01T08:46:15;22.77;;;13.83;;
1799;SDS011;919;48.274;12.292;2023-03-01T08:48:41;22.23;;;12.50;;
1799;SDS011;919;48.274;12.292;2023-03-01T08:51:09;24.50;;;13.00;;
1799;SDS011;919;48.274;12.292;2023-03-01T08:53:37;23.03;;;12.70;;
1799;SDS011;919;48.274;12.292;2023-03-01T08:56:04;25.57;;;14.80;;
1799;SDS011;919;48.274;12.292;2023-03-01T08:58:31;21.70;;;13.37;;
1799;SDS011;919;48.274;12.292;2023-03-01T09:00:59;24.63;;;12.73;;
1799;SDS011;919;48.274;12.292;2023-03-01T09:03:26;21.10;;;14.17;;
1799;SDS011;919;48.274;12.292;2023-03-01T09:05:53;22.23;;;12.97;;
1799;SDS011;919;48.274;12.292;2023-03-01T09:08:26;23.00;;;13.87;;
1799;SDS011;919;48.274;12.292;2023-03-01T09:10:53;24.73;;;13.40;;
1799;SDS011;919;48.274;12.292;2023-03-01T09:13:20;22.93;;;13.00;;
1799;SDS011;919;48.274;12.292;2023-03-01T09:15:48;22.33;;;12.60;;
1799;SDS011;919;48.274;12.292;2023-03-01T09:18:16;19.23;;;12.53;;
1799;SDS011;919;48.274;12.292;2023-03-01T09:20:43;21.70;;;13.50;;
1799;SDS011;919;48.274;12.292;2023-03-01T09:23:10;23.50;;;14.90;;
1799;SDS011;919;48.274;12.292;2023-03-01T09:25:37;23.23;;;13.20;;
1799;SDS011;919;48.274;12.292;2023-03-01T09:28:03;28.87;;;13.93;;
1799;SDS011;919;48.274;12.292;2023-03-01T09:30:30;21.40;;;13.73;;
1799;SDS011;919;48.274;12.292;2023-03-01T09:32:57;22.97;;;13.73;;
1799;SDS011;919;48.274;12.292;2023-03-01T09:35:25;23.43;;;13.23;;
1799;SDS011;919;48.274;12.292;2023-03-01T09:37:53;25.90;;;14.27;;
1799;SDS011;919;48.274;12.292;2023-03-01T09:40:20;24.30;;;15.00;;
1799;SDS011;919;48.274;12.292;2023-03-01T09:42:52;21.70;;;13.67;;
1799;SDS011;919;48.274;12.292;2023-03-01T09:45:25;22.87;;;14.20;;
1799;SDS011;919;48.274;12.292;2023-03-01T09:47:54;20.67;;;13.17;;
1799;SDS011;919;48.274;12.292;2023-03-01T09:50:22;22.80;;;14.47;;
1799;SDS011;919;48.274;12.292;2023-03-01T09:52:54;25.00;;;14.90;;
1799;SDS011;919;48.274;12.292;2023-03-01T09:55:29;26.50;;;15.57;;
1799;SDS011;919;48.274;12.292;2023-03-01T09:57:58;27.90;;;14.97;;
1799;SDS011;919;48.274;12.292;2023-03-01T10:00:35;20.77;;;14.47;;
1799;SDS011;919;48.274;12.292;2023-03-01T10:03:11;22.90;;;15.67;;
1799;SDS011;919;48.274;12.292;2023-03-01T10:05:44;25.50;;;14.93;;
1799;SDS011;919;48.274;12.292;2023-03-01T10:08:29;21.73;;;12.80;;
1799;SDS011;919;48.274;12.292;2023-03-01T10:11:01;20.17;;;13.77;;
1799;SDS011;919;48.274;12.292;2023-03-01T10:13:32;22.03;;;13.87;;
1799;SDS011;919;48.274;12.292;2023-03-01T10:16:03;26.90;;;15.00;;
1799;SDS011;919;48.274;12.292;2023-03-01T10:18:36;27.00;;;15.23;;
1799;SDS011;919;48.274;12.292;2023-03-01T10:21:07;23.93;;;14.77;;
1799;SDS011;919;48.274;12.292;2023-03-01T10:23:41;24.67;;;15.03;;
1799;SDS011;919;48.274;12.292;2023-03-01T10:26:23;24.40;;;15.00;;
1799;SDS011;919;48.274;12.292;2023-03-01T10:29:00;30.30;;;17.40;;
1799;SDS011;919;48.274;12.292;2023-03-01T10:31:33;22.27;;;14.97;;
1799;SDS011;919;48.274;12.292;2023-03-01T10:34:07;23.83;;;13.87;;
1799;SDS011;919;48.274;12.292;2023-03-01T10:36:36;20.87;;;14.43;;
1799;SDS011;919;48.274;12.292;2023-03-01T10:39:12;23.00;;;14.47;;
1799;SDS011;919;48.274;12.292;2023-03-01T10:44:36;33.80;;;15.93;;
1799;SDS011;919;48.274;12.292;2023-03-01T10:47:11;23.00;;;15.50;;
1799;SDS011;919;48.274;12.292;2023-03-01T10:49:43;22.13;;;14.67;;
1799;SDS011;919;48.274;12.292;2023-03-01T10:52:22;21.53;;;14.37;;
1799;SDS011;919;48.274;12.292;2023-03-01T10:54:53;24.27;;;14.70;;
1799;SDS011;919;48.274;12.292;2023-03-01T10:57:25;25.83;;;15.33;;
1799;SDS011;919;48.274;12.292;2023-03-01T11:02:48;26.33;;;16.27;;
1799;SDS011;919;48.274;12.292;2023-03-01T11:05:18;23.90;;;15.00;;
1799;SDS011;919;48.274;12.292;2023-03-01T11:07:49;23.90;;;15.17;;
1799;SDS011;919;48.274;12.292;2023-03-01T11:10:19;20.73;;;13.90;;
1799;SDS011;919;48.274;12.292;2023-03-01T11:12:47;21.83;;;15.70;;
1799;SDS011;919;48.274;12.292;2023-03-01T11:15:22;25.07;;;15.90;;
1799;SDS011;919;48.274;12.292;2023-03-01T11:17:51;22.47;;;14.83;;
1799;SDS011;919;48.274;12.292;2023-03-01T11:20:20;24.33;;;14.17;;
1799;SDS011;919;48.274;12.292;2023-03-01T11:22:52;25.57;;;15.50;;
1799;SDS011;919;48.274;12.292;2023-03-01T11:25:23;21.33;;;14.47;;
1799;SDS011;919;48.274;12.292;2023-03-01T11:27:52;28.90;;;15.60;;
1799;SDS011;919;48.274;12.292;2023-03-01T11:30:21;20.50;;;13.57;;
1799;SDS011;919;48.274;12.292;2023-03-01T11:32:52;21.37;;;14.17;;
1799;SDS011;919;48.274;12.292;2023-03-01T11:35:27;23.37;;;14.23;;
1799;SDS011;919;48.274;12.292;2023-03-01T11:37:59;21.20;;;13.47;;
1799;SDS011;919;48.274;12.292;2023-03-01T11:40:35;23.77;;;15.03;;
1799;SDS011;919;48.274;12.292;2023-03-01T11:43:09;22.40;;;15.73;;
1799;SDS011;919;48.274;12.292;2023-03-01T11:45:47;22.43;;;14.40;;
1799;SDS011;919;48.274;12.292;2023-03-01T11:48:27;21.70;;;14.60;;
1799;SDS011;919;48.274;12.292;2023-03-01T11:51:09;23.37;;;14.63;;
1799;SDS011;919;48.274;12.292;2023-03-01T11:53:49;23.87;;;13.93;;
1799;SDS011;919;48.274;12.292;2023-03-01T11:56:27;23.33;;;14.07;;
1799;SDS011;919;48.274;12.292;2023-03-01T11:59:05;17.87;;;13.07;;
1799;SDS011;919;48.274;12.292;2023-03-01T12:01:48;23.40;;;14.67;;
1799;SDS011;919;48.274;12.292;2023-03-01T12:04:36;19.60;;;12.97;;
1799;SDS011;919;48.274;12.292;2023-03-01T12:07:27;24.23;;;13.13;;
1799;SDS011;919;48.274;12.292;2023-03-01T12:10:22;21.23;;;12.77;;
1799;SDS011;919;48.274;12.292;2023-03-01T12:15:46;20.33;;;13.27;;
1799;SDS011;919;48.274;12.292;2023-03-01T12:18:29;17.83;;;12.50;;
1799;SDS011;919;48.274;12.292;2023-03-01T12:21:11;22.43;;;15.50;;
1799;SDS011;919;48.274;12.292;2023-03-01T12:23:51;19.00;;;13.03;;
1799;SDS011;919;48.274;12.292;2023-03-01T12:26:35;22.57;;;13.73;;
1799;SDS011;919;48.274;12.292;2023-03-01T12:29:20;23.33;;;15.20;;
1799;SDS011;919;48.274;12.292;2023-03-01T12:32:07;22.63;;;14.80;;
1799;SDS011;919;48.274;12.292;2023-03-01T12:34:46;22.70;;;15.30;;
1799;SDS011;919;48.274;12.292;2023-03-01T12:37:29;20.30;;;14.03;;
1799;SDS011;919;48.274;12.292;2023-03-01T12:43:08;20.27;;;13.87;;
1799;SDS011;919;48.274;12.292;2023-03-01T12:45:54;19.43;;;13.80;;
1799;SDS011;919;48.274;12.292;2023-03-01T12:48:35;19.60;;;12.73;;
1799;SDS011;919;48.274;12.292;2023-03-01T12:51:10;19.53;;;13.53;;
1799;SDS011;919;48.274;12.292;2023-03-01T12:53:41;20.30;;;14.13;;
1799;SDS011;919;48.274;12.292;2023-03-01T12:56:14;18.03;;;12.87;;
1799;SDS011;919;48.274;12.292;2023-03-01T12:58:46;20.57;;;12.30;;
1799;SDS011;919;48.274;12.292;2023-03-01T13:01:25;19.57;;;12.80;;
1799;SDS011;919;48.274;12.292;2023-03-01T13:04:12;24.23;;;15.13;;
1799;SDS011;919;48.274;12.292;2023-03-01T13:07:17;18.73;;;13.83;;
1799;SDS011;919;48.274;12.292;2023-03-01T13:09:51;18.93;;;13.03;;
1799;SDS011;919;48.274;12.292;2023-03-01T13:12:42;20.13;;;13.03;;
1799;SDS011;919;48.274;12.292;2023-03-01T13:15:30;21.50;;;13.43;;
1799;SDS011;919;48.274;12.292;2023-03-01T13:18:02;18.87;;;13.73;;
1799;SDS011;919;48.274;12.292;2023-03-01T13:20:51;17.93;;;13.73;;
1799;SDS011;919;48.274;12.292;2023-03-01T13:23:26;19.67;;;14.63;;
1799;SDS011;919;48.274;12.292;2023-03-01T13:26:09;19.70;;;12.83;;
1799;SDS011;919;48.274;12.292;2023-03-01T13:28:46;21.80;;;13.73;;
1799;SDS011;919;48.274;12.292;2023-03-01T13:34:41;19.93;;;13.23;;
1799;SDS011;919;48.274;12.292;2023-03-01T13:37:19;18.03;;;12.10;;
1799;SDS011;919;48.274;12.292;2023-03-01T13:39:48;19.30;;;12.50;;
1799;SDS011;919;48.274;12.292;2023-03-01T13:42:39;19.87;;;12.07;;
1799;SDS011;919;48.274;12.292;2023-03-01T13:45:24;22.07;;;12.70;;
1799;SDS011;919;48.274;12.292;2023-03-01T13:48:00;19.53;;;13.13;;
1799;SDS011;919;48.274;12.292;2023-03-01T13:50:33;21.57;;;12.53;;
1799;SDS011;919;48.274;12.292;2023-03-01T13:53:04;17.47;;;12.30;;
1799;SDS011;919;48.274;12.292;2023-03-01T13:55:36;15.53;;;12.27;;
1799;SDS011;919;48.274;12.292;2023-03-01T13:58:04;18.07;;;12.17;;
1799;SDS011;919;48.274;12.292;2023-03-01T14:00:41;16.20;;;11.27;;
1799;SDS011;919;48.274;12.292;2023-03-01T14:03:09;18.03;;;11.33;;
1799;SDS011;919;48.274;12.292;2023-03-01T14:05:39;15.47;;;10.70;;
1799;SDS011;919;48.274;12.292;2023-03-01T14:08:20;20.57;;;12.77;;
1799;SDS011;919;48.274;12.292;2023-03-01T14:10:52;15.33;;;10.37;;
1799;SDS011;919;48.274;12.292;2023-03-01T14:13:33;15.07;;;10.40;;
1799;SDS011;919;48.274;12.292;2023-03-01T14:16:12;17.40;;;11.30;;
1799;SDS011;919;48.274;12.292;2023-03-01T14:18:52;15.73;;;10.60;;
1799;SDS011;919;48.274;12.292;2023-03-01T14:21:27;16.23;;;10.57;;
1799;SDS011;919;48.274;12.292;2023-03-01T14:23:55;15.67;;;11.10;;
1799;SDS011;919;48.274;12.292;2023-03-01T14:26:23;15.10;;;10.50;;
1799;SDS011;919;48.274;12.292;2023-03-01T14:28:50;16.07;;;10.40;;
1799;SDS011;919;48.274;12.292;2023-03-01T14:31:31;21.23;;;10.70;;
1799;SDS011;919;48.274;12.292;2023-03-01T14:34:02;15.77;;;10.63;;
1799;SDS011;919;48.274;12.292;2023-03-01T14:36:31;14.90;;;9.90;;
1799;SDS011;919;48.274;12.292;2023-03-01T14:38:59;14.33;;;10.20;;
1799;SDS011;919;48.274;12.292;2023-03-01T14:41:30;17.53;;;9.57;;
1799;SDS011;919;48.274;12.292;2023-03-01T14:44:00;15.67;;;10.17;;
1799;SDS011;919;48.274;12.292;2023-03-01T14:46:31;13.23;;;9.13;;
1799;SDS011;919;48.274;12.292;2023-03-01T14:49:01;13.47;;;9.53;;
1799;SDS011;919;48.274;12.292;2023-03-01T14:51:31;15.93;;;8.33;;
1799;SDS011;919;48.274;12.292;2023-03-01T14:54:03;12.03;;;8.50;;
1799;SDS011;919;48.274;12.292;2023-03-01T14:56:43;12.87;;;9.30;;
1799;SDS011;919;48.274;12.292;2023-03-01T14:59:10;12.60;;;7.60;;
1799;SDS011;919;48.274;12.292;2023-03-01T15:01:37;15.10;;;8.20;;
1799;SDS011;919;48.274;12.292;2023-03-01T15:04:06;14.70;;;8.50;;
1799;SDS011;919;48.274;12.292;2023-03-01T15:06:39;14.57;;;8.00;;
1799;SDS011;919;48.274;12.292;2023-03-01T15:09:06;19.53;;;8.90;;
1799;SDS011;919;48.274;12.292;2023-03-01T15:11:40;15.23;;;8.00;;
1799;SDS011;919;48.274;12.292;2023-03-01T15:17:14;10.60;;;7.70;;
1799;SDS011;919;48.274;12.292;2023-03-01T15:19:46;11.20;;;7.70;;
1799;SDS011;919;48.274;12.292;2023-03-01T15:22:15;13.60;;;7.80;;
1799;SDS011;919;48.274;12.292;2023-03-01T15:24:46;13.67;;;7.20;;